createdAt,value
2017-07-02T00:00:07.802Z,85.40
2017-07-02T00:02:36.649Z,85.40
2017-07-02T00:05:06.296Z,86.20
2017-07-02T00:07:35.186Z,85.60
2017-07-02T00:10:04.064Z,85.70
2017-07-02T00:12:32.948Z,85.60
2017-07-02T00:15:01.835Z,85.50
2017-07-02T00:17:30.711Z,85.70
2017-07-02T00:20:00.351Z,86.30
2017-07-02T00:22:29.233Z,85.90
2017-07-02T00:24:58.107Z,85.90
2017-07-02T00:27:27.741Z,86.30
2017-07-02T00:29:56.616Z,86.20
2017-07-02T00:32:25.507Z,86.20
2017-07-02T00:34:54.379Z,86.10
2017-07-02T00:37:23.262Z,86.10
2017-07-02T00:39:52.147Z,86.40
2017-07-02T00:42:20.989Z,86.20
2017-07-02T00:44:49.872Z,86.10
2017-07-02T00:47:18.758Z,86.20
2017-07-02T00:49:47.660Z,86.30
2017-07-02T00:52:16.558Z,86.20
2017-07-02T00:54:45.459Z,86.20
2017-07-02T00:59:52.381Z,86.20
2017-07-02T01:02:21.288Z,86.50
2017-07-02T01:04:50.190Z,86.50
2017-07-02T01:07:19.072Z,86.50
2017-07-02T01:09:47.960Z,86.60
2017-07-02T01:12:16.839Z,87.00
2017-07-02T01:14:45.739Z,86.90
2017-07-02T01:17:14.627Z,87.00
2017-07-02T01:19:43.515Z,87.80
2017-07-02T01:22:12.407Z,87.30
2017-07-02T01:24:41.309Z,87.40
2017-07-02T01:27:10.209Z,87.60
2017-07-02T01:29:39.109Z,87.70
2017-07-02T01:32:08.807Z,87.80
2017-07-02T01:34:37.700Z,87.80
2017-07-02T01:37:06.591Z,88.10
2017-07-02T01:39:35.527Z,88.10
2017-07-02T01:42:05.084Z,88.10
2017-07-02T01:44:33.968Z,87.90
2017-07-02T01:47:02.867Z,87.90
2017-07-02T01:49:31.770Z,88.10
2017-07-02T01:52:00.669Z,88.10
2017-07-02T01:54:30.328Z,88.50
2017-07-02T01:56:58.531Z,88.20
2017-07-02T01:59:27.424Z,88.20
2017-07-02T02:02:07.558Z,88.30
2017-07-02T02:04:36.444Z,88.30
2017-07-02T02:07:05.339Z,88.30
2017-07-02T02:09:35.009Z,88.50
2017-07-02T02:12:04.681Z,88.50
2017-07-02T02:14:33.590Z,88.50
2017-07-02T02:17:02.497Z,88.40
2017-07-02T02:19:32.162Z,88.20
2017-07-02T02:22:01.064Z,88.00
2017-07-02T02:24:29.956Z,88.10
2017-07-02T02:26:58.850Z,88.10
2017-07-02T02:29:27.740Z,88.10
2017-07-02T02:31:56.698Z,88.10
2017-07-02T02:34:25.587Z,88.10
2017-07-02T02:36:54.480Z,88.10
2017-07-02T02:39:23.366Z,88.20
2017-07-02T02:41:52.257Z,88.00
2017-07-02T02:44:21.154Z,88.00
2017-07-02T02:46:50.046Z,88.00
2017-07-02T02:49:18.940Z,87.90
2017-07-02T02:51:47.834Z,87.90
2017-07-02T02:54:16.723Z,87.90
2017-07-02T02:56:45.618Z,87.80
2017-07-02T02:59:14.513Z,87.80
2017-07-02T03:01:43.409Z,87.80
2017-07-02T03:04:12.313Z,87.90
2017-07-02T03:06:41.222Z,87.90
2017-07-02T03:09:10.148Z,87.70
2017-07-02T03:11:39.056Z,87.60
2017-07-02T03:14:07.954Z,87.60
2017-07-02T03:16:36.852Z,87.50
2017-07-02T03:19:05.749Z,87.50
2017-07-02T03:21:34.650Z,87.40
2017-07-02T03:24:03.556Z,87.30
2017-07-02T03:26:32.457Z,87.30
2017-07-02T03:29:01.357Z,87.30
2017-07-02T03:31:30.257Z,87.40
2017-07-02T03:33:59.937Z,87.00
2017-07-02T03:36:28.831Z,86.90
2017-07-02T03:38:57.733Z,87.00
2017-07-02T03:41:26.627Z,87.00
2017-07-02T03:43:55.512Z,87.00
2017-07-02T03:46:24.434Z,86.80
2017-07-02T03:48:54.088Z,87.20
2017-07-02T03:51:22.980Z,86.60
2017-07-02T03:53:51.874Z,86.60
2017-07-02T03:56:20.773Z,86.50
2017-07-02T03:58:49.661Z,86.60
2017-07-02T04:01:18.556Z,86.50
2017-07-02T04:03:47.432Z,86.40
2017-07-02T04:06:16.329Z,86.40
2017-07-02T04:08:45.229Z,86.40
2017-07-02T04:11:14.129Z,86.40
2017-07-02T04:13:43.045Z,86.20
2017-07-02T04:16:11.938Z,86.10
2017-07-02T04:18:40.837Z,86.00
2017-07-02T04:21:09.737Z,86.10
2017-07-02T04:23:38.635Z,86.60
2017-07-02T04:26:08.293Z,85.80
2017-07-02T04:28:37.199Z,85.80
2017-07-02T04:31:06.103Z,85.60
2017-07-02T04:33:35.013Z,85.80
2017-07-02T04:36:03.918Z,85.70
2017-07-02T04:38:33.588Z,85.70
2017-07-02T04:41:02.480Z,85.60
2017-07-02T04:43:31.425Z,85.60
2017-07-02T04:46:00.339Z,85.20
2017-07-02T04:48:29.233Z,85.10
2017-07-02T04:50:58.130Z,85.00
2017-07-02T04:53:27.037Z,85.00
2017-07-02T04:55:55.929Z,85.00
2017-07-02T04:58:24.812Z,85.00
2017-07-02T05:00:53.718Z,84.80
2017-07-02T05:03:22.612Z,84.80
2017-07-02T05:05:51.499Z,84.80
2017-07-02T05:08:20.392Z,84.90
2017-07-02T05:10:49.293Z,84.90
2017-07-02T05:13:18.185Z,84.90
2017-07-02T05:15:47.086Z,84.70
2017-07-02T05:18:18.191Z,84.60
2017-07-02T05:20:47.097Z,84.50
2017-07-02T05:23:15.997Z,84.50
2017-07-02T05:25:44.901Z,84.50
2017-07-02T05:28:13.785Z,84.60
2017-07-02T05:30:42.682Z,84.70
2017-07-02T05:33:11.585Z,84.50
2017-07-02T05:35:41.204Z,84.70
2017-07-02T05:38:10.830Z,84.10
2017-07-02T05:40:39.722Z,83.90
2017-07-02T05:43:08.616Z,83.70
2017-07-02T05:45:37.479Z,83.60
2017-07-02T05:48:06.382Z,83.50
2017-07-02T05:50:36.043Z,83.50
2017-07-02T05:53:04.940Z,83.50
2017-07-02T05:55:33.837Z,83.50
2017-07-02T05:58:02.694Z,83.10
2017-07-02T06:00:31.244Z,83.10
2017-07-02T06:03:00.916Z,83.00
2017-07-02T06:05:29.811Z,83.00
2017-07-02T06:07:58.708Z,82.70
2017-07-02T06:10:27.608Z,82.50
2017-07-02T06:12:56.501Z,82.10
2017-07-02T06:15:25.043Z,82.00
2017-07-02T06:17:53.932Z,81.40
2017-07-02T06:20:22.834Z,81.30
2017-07-02T06:22:51.735Z,81.10
2017-07-02T06:25:20.640Z,81.10
2017-07-02T06:27:49.546Z,81.10
2017-07-02T06:30:18.402Z,81.60
2017-07-02T06:32:47.284Z,80.50
2017-07-02T06:35:15.842Z,80.00
2017-07-02T06:37:44.731Z,79.90
2017-07-02T06:40:14.395Z,79.00
2017-07-02T06:42:43.294Z,79.00
2017-07-02T06:45:12.183Z,79.00
2017-07-02T06:47:41.089Z,78.50
2017-07-02T06:50:09.990Z,78.30
2017-07-02T06:52:39.665Z,77.20
2017-07-02T06:55:08.574Z,77.20
2017-07-02T06:57:37.482Z,76.70
2017-07-02T07:00:06.385Z,76.40
2017-07-02T07:02:36.046Z,75.90
2017-07-02T07:05:04.896Z,75.90
2017-07-02T07:07:34.565Z,75.40
2017-07-02T07:10:03.461Z,75.30
2017-07-02T07:12:32.347Z,75.00
2017-07-02T07:15:01.242Z,74.80
2017-07-02T07:17:30.138Z,74.40
2017-07-02T07:19:59.025Z,74.40
2017-07-02T07:22:27.921Z,74.00
2017-07-02T07:24:56.808Z,72.70
2017-07-02T07:27:25.692Z,72.30
2017-07-02T07:29:54.587Z,71.90
2017-07-02T07:32:23.488Z,71.80
2017-07-02T07:34:52.369Z,71.70
2017-07-02T07:37:21.277Z,71.60
2017-07-02T07:39:50.176Z,70.80
2017-07-02T07:42:19.055Z,70.60
2017-07-02T07:44:47.959Z,70.70
2017-07-02T07:47:17.642Z,70.60
2017-07-02T07:49:46.544Z,70.60
2017-07-02T07:52:15.440Z,70.60
2017-07-02T07:54:44.152Z,70.40
2017-07-02T07:57:13.623Z,69.80
2017-07-02T07:59:42.518Z,69.70
2017-07-02T08:02:11.416Z,69.50
2017-07-02T08:04:40.322Z,69.40
2017-07-02T08:07:09.220Z,68.50
2017-07-02T08:09:38.117Z,67.80
2017-07-02T08:12:07.782Z,68.20
2017-07-02T08:14:36.689Z,68.10
2017-07-02T08:17:05.581Z,67.80
2017-07-02T08:19:34.485Z,67.40
2017-07-02T08:22:03.377Z,66.80
2017-07-02T08:24:32.269Z,66.90
2017-07-02T08:27:01.160Z,66.70
2017-07-02T08:29:30.043Z,66.40
2017-07-02T08:31:58.949Z,66.20
2017-07-02T08:34:28.608Z,66.00
2017-07-02T08:36:57.319Z,66.20
2017-07-02T08:39:26.209Z,66.10
2017-07-02T08:41:55.101Z,65.80
2017-07-02T08:44:24.005Z,65.20
2017-07-02T08:46:52.901Z,64.50
2017-07-02T08:49:21.795Z,64.20
2017-07-02T08:51:50.692Z,64.20
2017-07-02T08:54:19.590Z,64.20
2017-07-02T08:56:48.471Z,64.20
2017-07-02T08:59:17.355Z,64.00
2017-07-02T09:01:46.295Z,63.90
2017-07-02T09:04:15.869Z,64.10
2017-07-02T09:06:44.764Z,64.30
2017-07-02T09:09:14.424Z,63.50
2017-07-02T09:11:43.325Z,64.00
2017-07-02T09:14:12.224Z,64.00
2017-07-02T09:16:41.118Z,63.60
2017-07-02T09:19:09.999Z,63.70
2017-07-02T09:21:38.883Z,63.80
2017-07-02T09:24:07.770Z,63.30
2017-07-02T09:26:36.689Z,63.10
2017-07-02T09:29:05.590Z,62.70
2017-07-02T09:31:34.521Z,62.70
2017-07-02T09:34:03.399Z,61.90
2017-07-02T09:36:33.056Z,61.90
2017-07-02T09:39:01.954Z,61.90
2017-07-02T09:41:30.839Z,62.20
2017-07-02T09:43:59.688Z,62.70
2017-07-02T09:46:28.572Z,62.20
2017-07-02T09:48:58.238Z,61.10
2017-07-02T09:51:27.129Z,61.70
2017-07-02T09:53:56.025Z,60.90
2017-07-02T09:56:24.926Z,61.00
2017-07-02T09:58:53.819Z,60.80
2017-07-02T10:01:22.718Z,60.60
2017-07-02T10:03:51.609Z,60.10
2017-07-02T10:06:20.491Z,59.80
2017-07-02T10:08:50.157Z,59.40
2017-07-02T10:11:19.815Z,59.50
2017-07-02T10:13:48.700Z,59.30
2017-07-02T10:16:17.636Z,58.90
2017-07-02T10:18:46.507Z,58.70
2017-07-02T10:21:15.387Z,58.00
2017-07-02T10:23:44.277Z,57.90
2017-07-02T10:26:13.165Z,58.50
2017-07-02T10:28:42.024Z,58.40
2017-07-02T10:31:10.911Z,58.10
2017-07-02T10:33:39.618Z,57.80
2017-07-02T10:36:08.500Z,57.80
2017-07-02T10:38:37.389Z,57.40
2017-07-02T10:41:06.239Z,57.80
2017-07-02T10:43:35.133Z,57.60
2017-07-02T10:46:04.004Z,57.10
2017-07-02T10:48:32.947Z,57.10
2017-07-02T10:51:01.839Z,57.00
2017-07-02T10:53:30.717Z,57.30
2017-07-02T10:56:00.373Z,56.50
2017-07-02T10:58:29.245Z,56.50
2017-07-02T11:00:58.127Z,57.20
2017-07-02T11:03:26.998Z,56.40
2017-07-02T11:05:56.666Z,56.20
2017-07-02T11:08:25.551Z,56.10
2017-07-02T11:10:54.427Z,55.80
2017-07-02T11:13:23.300Z,56.10
2017-07-02T11:15:52.192Z,56.40
2017-07-02T11:18:21.089Z,56.50
2017-07-02T11:20:49.979Z,56.60
2017-07-02T11:23:18.820Z,56.60
2017-07-02T11:25:47.701Z,56.60
2017-07-02T11:28:16.598Z,56.00
2017-07-02T11:30:45.489Z,55.90
2017-07-02T11:33:14.373Z,55.70
2017-07-02T11:35:43.262Z,55.10
2017-07-02T11:38:12.156Z,55.30
2017-07-02T11:40:41.050Z,55.50
2017-07-02T11:43:09.955Z,55.70
2017-07-02T11:45:38.823Z,55.90
2017-07-02T11:48:07.727Z,56.10
2017-07-02T11:50:36.617Z,56.10
2017-07-02T11:53:05.491Z,56.10
2017-07-02T11:55:34.376Z,56.40
2017-07-02T11:58:03.259Z,56.40
2017-07-02T12:00:32.140Z,56.50
2017-07-02T12:03:00.984Z,56.40
2017-07-02T12:05:29.861Z,56.10
2017-07-02T12:07:58.754Z,56.00
2017-07-02T12:10:27.646Z,55.50
2017-07-02T12:12:56.531Z,55.60
2017-07-02T12:15:25.425Z,55.70
2017-07-02T12:17:53.620Z,56.00
2017-07-02T12:20:22.159Z,56.00
2017-07-02T12:22:50.680Z,55.90
2017-07-02T12:25:18.860Z,55.80
2017-07-02T12:27:47.384Z,55.60
2017-07-02T12:30:16.280Z,55.40
2017-07-02T12:32:44.465Z,55.50
2017-07-02T12:35:12.644Z,55.40
2017-07-02T12:37:41.526Z,55.60
2017-07-02T12:40:10.047Z,55.60
2017-07-02T12:42:38.575Z,55.70
2017-07-02T12:45:07.521Z,55.10
2017-07-02T12:47:36.413Z,55.10
2017-07-02T12:50:04.953Z,55.50
2017-07-02T12:52:33.838Z,55.60
2017-07-02T12:55:02.740Z,55.70
2017-07-02T12:57:31.611Z,55.70
2017-07-02T13:00:01.255Z,56.00
2017-07-02T13:02:30.142Z,55.90
2017-07-02T13:04:58.995Z,55.90
2017-07-02T13:07:28.642Z,55.90
2017-07-02T13:09:57.534Z,55.90
2017-07-02T13:12:26.419Z,56.00
2017-07-02T13:14:55.307Z,56.10
2017-07-02T13:17:24.189Z,56.00
2017-07-02T13:19:53.071Z,56.20
2017-07-02T13:22:22.712Z,56.60
2017-07-02T13:24:51.586Z,56.60
2017-07-02T13:27:20.452Z,56.60
2017-07-02T13:29:50.074Z,56.60
2017-07-02T13:32:19.712Z,55.80
2017-07-02T13:34:48.593Z,55.70
2017-07-02T13:37:17.480Z,55.60
2017-07-02T13:39:46.327Z,54.90
2017-07-02T13:42:15.217Z,55.00
2017-07-02T13:44:44.101Z,54.60
2017-07-02T13:47:12.983Z,54.30
2017-07-02T13:49:41.877Z,54.30
2017-07-02T13:52:10.768Z,54.00
2017-07-02T13:54:39.661Z,53.90
2017-07-02T13:57:08.548Z,53.80
2017-07-02T13:59:37.428Z,53.70
2017-07-02T14:02:06.317Z,53.60
2017-07-02T14:04:35.196Z,53.70
2017-07-02T14:07:04.091Z,53.60
2017-07-02T14:09:32.971Z,53.60
2017-07-02T14:12:01.839Z,53.50
2017-07-02T14:14:31.480Z,53.20
2017-07-02T14:17:00.353Z,53.10
2017-07-02T14:19:29.232Z,52.70
2017-07-02T14:21:58.868Z,52.90
2017-07-02T14:24:27.745Z,52.80
2017-07-02T14:26:56.626Z,53.10
2017-07-02T14:29:26.265Z,53.10
2017-07-02T14:31:55.103Z,53.10
2017-07-02T14:34:23.994Z,53.10
2017-07-02T14:36:52.865Z,52.80
2017-07-02T14:39:21.718Z,53.10
2017-07-02T14:41:50.601Z,52.40
2017-07-02T14:44:19.505Z,51.90
2017-07-02T14:46:48.398Z,52.10
2017-07-02T14:49:17.278Z,52.00
2017-07-02T14:51:46.935Z,52.10
2017-07-02T14:54:15.793Z,52.00
2017-07-02T14:56:44.722Z,52.30
2017-07-02T14:59:13.615Z,52.30
2017-07-02T15:01:42.496Z,52.40
2017-07-02T15:04:11.389Z,52.50
2017-07-02T15:06:40.289Z,52.40
2017-07-02T15:09:09.172Z,52.40
2017-07-02T15:11:38.063Z,53.00
2017-07-02T15:14:06.957Z,52.40
2017-07-02T15:16:35.848Z,52.70
2017-07-02T15:19:04.728Z,52.70
2017-07-02T15:21:33.610Z,53.00
2017-07-02T15:24:02.486Z,53.30
2017-07-02T15:26:31.330Z,53.50
2017-07-02T15:29:00.209Z,53.50
2017-07-02T15:31:29.092Z,53.50
2017-07-02T15:33:57.997Z,53.70
2017-07-02T15:36:26.886Z,53.70
2017-07-02T15:38:55.778Z,53.80
2017-07-02T15:41:24.672Z,53.60
2017-07-02T15:43:53.558Z,53.30
2017-07-02T15:46:22.446Z,52.80
2017-07-02T15:48:51.328Z,53.40
2017-07-02T15:51:20.209Z,53.60
2017-07-02T15:53:49.087Z,53.90
2017-07-02T15:56:17.973Z,53.90
2017-07-02T15:58:46.870Z,54.00
2017-07-02T16:01:15.754Z,54.20
2017-07-02T16:03:44.647Z,54.10
2017-07-02T16:06:13.504Z,53.90
2017-07-02T16:08:42.379Z,53.80
2017-07-02T16:11:11.257Z,54.00
2017-07-02T16:13:40.155Z,54.10
2017-07-02T16:16:09.044Z,54.20
2017-07-02T16:18:37.985Z,54.40
2017-07-02T16:21:07.647Z,54.30
2017-07-02T16:23:36.572Z,54.20
2017-07-02T16:26:06.233Z,55.00
2017-07-02T16:28:35.119Z,54.70
2017-07-02T16:31:04.011Z,54.80
2017-07-02T16:33:32.888Z,54.80
2017-07-02T16:36:01.781Z,54.90
2017-07-02T16:38:30.669Z,55.00
2017-07-02T16:40:59.565Z,55.20
2017-07-02T16:43:28.440Z,55.40
2017-07-02T16:45:57.330Z,55.50
2017-07-02T16:48:27.012Z,56.10
2017-07-02T16:50:55.853Z,56.00
2017-07-02T16:53:24.719Z,56.50
2017-07-02T16:55:54.382Z,57.70
2017-07-02T16:58:23.278Z,57.60
2017-07-02T17:00:52.163Z,58.40
2017-07-02T17:03:21.056Z,58.50
2017-07-02T17:05:49.950Z,58.40
2017-07-02T17:08:18.810Z,58.70
2017-07-02T17:10:47.690Z,59.20
2017-07-02T17:13:16.563Z,59.80
2017-07-02T17:15:45.444Z,60.40
2017-07-02T17:18:14.133Z,60.70
2017-07-02T17:20:43.777Z,61.10
2017-07-02T17:23:12.657Z,61.20
2017-07-02T17:25:41.558Z,61.80
2017-07-02T17:28:10.445Z,61.90
2017-07-02T17:30:39.324Z,62.10
2017-07-02T17:33:08.966Z,62.60
2017-07-02T17:35:37.850Z,62.50
2017-07-02T17:38:06.745Z,62.80
2017-07-02T17:40:35.621Z,63.20
2017-07-02T17:43:04.505Z,63.30
2017-07-02T17:45:34.146Z,63.60
2017-07-02T17:48:03.018Z,63.40
2017-07-02T17:50:31.897Z,63.90
2017-07-02T17:53:00.753Z,64.10
2017-07-02T17:55:29.631Z,64.10
2017-07-02T17:57:58.509Z,64.50
2017-07-02T18:00:27.381Z,64.90
2017-07-02T18:02:56.257Z,65.30
2017-07-02T18:05:25.136Z,65.90
2017-07-02T18:07:54.801Z,66.80
2017-07-02T18:10:23.700Z,66.90
2017-07-02T18:12:52.579Z,67.10
2017-07-02T18:15:21.432Z,67.30
2017-07-02T18:17:50.116Z,67.50
2017-07-02T18:20:19.001Z,67.90
2017-07-02T18:22:48.650Z,68.20
2017-07-02T18:25:17.529Z,68.20
2017-07-02T18:27:46.396Z,68.40
2017-07-02T18:30:16.057Z,68.80
2017-07-02T18:32:44.946Z,68.70
2017-07-02T18:35:13.827Z,68.90
2017-07-02T18:37:42.726Z,68.90
2017-07-02T18:40:11.610Z,68.90
2017-07-02T18:42:40.489Z,69.00
2017-07-02T18:45:09.378Z,68.80
2017-07-02T18:47:38.261Z,68.80
2017-07-02T18:50:07.155Z,68.80
2017-07-02T18:52:36.051Z,68.80
2017-07-02T18:55:04.944Z,68.90
2017-07-02T18:57:33.837Z,69.00
2017-07-02T19:00:02.733Z,69.30
2017-07-02T19:02:31.612Z,69.40
2017-07-02T19:05:00.517Z,69.40
2017-07-02T19:07:29.418Z,69.40
2017-07-02T19:09:58.292Z,69.60
2017-07-02T19:12:27.172Z,69.60
2017-07-02T19:14:56.017Z,69.80
2017-07-02T19:17:24.918Z,69.90
2017-07-02T19:19:53.766Z,70.00
2017-07-02T19:22:22.648Z,70.00
2017-07-02T19:24:51.532Z,70.10
2017-07-02T19:27:20.426Z,70.10
2017-07-02T19:29:49.300Z,70.30
2017-07-02T19:32:18.960Z,70.60
2017-07-02T19:34:47.840Z,70.60
2017-07-02T19:37:16.736Z,70.90
2017-07-02T19:39:45.641Z,70.90
2017-07-02T19:44:52.539Z,71.20
2017-07-02T19:47:21.427Z,71.30
2017-07-02T19:49:50.322Z,71.60
2017-07-02T19:52:20.172Z,71.60
2017-07-02T19:54:49.055Z,71.60
2017-07-02T19:57:17.944Z,71.80
2017-07-02T19:59:47.605Z,72.40
2017-07-02T20:02:16.582Z,72.30
2017-07-02T20:04:45.468Z,72.40
2017-07-02T20:07:14.351Z,72.70
2017-07-02T20:09:43.245Z,72.70
2017-07-02T20:12:12.903Z,73.00
2017-07-02T20:14:41.780Z,72.80
2017-07-02T20:17:10.678Z,73.00
2017-07-02T20:19:39.582Z,73.10
2017-07-02T20:22:08.459Z,73.20
2017-07-02T20:24:37.342Z,73.20
2017-07-02T20:27:06.224Z,73.20
2017-07-02T20:29:35.107Z,73.30
2017-07-02T20:32:04.012Z,73.40
2017-07-02T20:34:32.919Z,73.20
2017-07-02T20:37:01.803Z,73.10
2017-07-02T20:39:30.693Z,73.10
2017-07-02T20:41:59.572Z,73.00
2017-07-02T20:44:28.451Z,73.00
2017-07-02T20:46:57.344Z,72.90
2017-07-02T20:49:26.229Z,73.10
2017-07-02T20:51:55.882Z,73.00
2017-07-02T20:54:24.773Z,73.00
2017-07-02T20:56:53.664Z,73.10
2017-07-02T20:59:22.547Z,73.10
2017-07-02T21:01:51.236Z,73.20
2017-07-02T21:04:20.121Z,73.10
2017-07-02T21:06:48.999Z,73.10
2017-07-02T21:09:17.886Z,73.10
2017-07-02T21:11:46.763Z,73.20
2017-07-02T21:14:16.421Z,73.50
2017-07-02T21:16:45.339Z,73.40
2017-07-02T21:19:14.222Z,73.60
2017-07-02T21:21:43.075Z,73.80
2017-07-02T21:24:11.952Z,74.00
2017-07-02T21:26:41.256Z,74.00
2017-07-02T21:29:10.178Z,74.30
2017-07-02T21:31:39.076Z,74.40
2017-07-02T21:34:08.775Z,74.40
2017-07-02T21:36:37.660Z,74.60
2017-07-02T21:39:06.617Z,74.80
2017-07-02T21:41:35.509Z,75.00
2017-07-02T21:44:04.393Z,75.10
2017-07-02T21:46:34.729Z,75.30
2017-07-02T21:49:03.618Z,75.30
2017-07-02T21:51:32.506Z,75.20
2017-07-02T21:54:01.409Z,75.20
2017-07-02T21:56:30.281Z,75.30
2017-07-02T21:58:59.936Z,75.40
2017-07-02T22:01:28.812Z,75.30
2017-07-02T22:03:57.708Z,75.30
2017-07-02T22:06:26.581Z,75.40
2017-07-02T22:08:56.229Z,75.50
2017-07-02T22:11:25.119Z,75.50
2017-07-02T22:13:53.993Z,75.30
2017-07-02T22:16:22.872Z,75.40
2017-07-02T22:18:51.774Z,75.40
2017-07-02T22:21:20.662Z,75.40
2017-07-02T22:23:49.545Z,75.50
2017-07-02T22:26:18.446Z,75.50
2017-07-02T22:28:47.332Z,75.50
2017-07-02T22:31:16.217Z,75.40
2017-07-02T22:33:45.090Z,75.30
2017-07-02T22:36:14.751Z,75.30
2017-07-02T22:38:43.635Z,75.20
2017-07-02T22:41:12.490Z,75.10
2017-07-02T22:43:41.377Z,75.10
2017-07-02T22:46:10.268Z,75.10
2017-07-02T22:48:39.934Z,75.20
2017-07-02T22:51:08.827Z,75.10
2017-07-02T22:53:37.726Z,75.10
2017-07-02T22:56:13.084Z,75.20
2017-07-02T22:58:41.942Z,75.40
2017-07-02T23:01:10.907Z,75.30
2017-07-02T23:03:39.787Z,75.40
2017-07-02T23:06:08.684Z,75.50
2017-07-02T23:08:37.575Z,75.60
2017-07-02T23:11:06.470Z,75.80
2017-07-02T23:13:35.359Z,75.80
2017-07-02T23:16:05.011Z,75.60
2017-07-02T23:18:33.858Z,75.60
2017-07-02T23:21:02.732Z,75.70
2017-07-02T23:23:31.614Z,75.60
2017-07-02T23:26:00.491Z,75.70
2017-07-02T23:28:29.387Z,75.80
2017-07-02T23:30:58.258Z,75.90
2017-07-02T23:33:27.132Z,75.90
2017-07-02T23:35:56.021Z,75.80
2017-07-02T23:38:24.910Z,75.80
2017-07-02T23:40:53.789Z,75.80
2017-07-02T23:43:22.676Z,75.90
2017-07-02T23:45:51.556Z,75.90
2017-07-02T23:48:20.442Z,75.90
2017-07-02T23:50:50.089Z,76.00
2017-07-02T23:53:18.975Z,75.80
2017-07-02T23:55:47.856Z,75.90
2017-07-02T23:58:16.742Z,75.90
